Time,TemperatureF,DewpointF,PressureIn,WindDirection,WindDirectionDegrees,WindSpeedMPH,WindSpeedGustMPH,Humidity,HourlyPrecipIn,Conditions,Clouds,dailyrainin,SoftwareType,DateUTC
2013-04-23 00:02:00,72.0,29.8,29.72,East,93,3.0,6.0,21,0.00,,,0.00,meteohub,2013-04-23 07:02:00,
2013-04-23 00:07:00,72.1,28.8,29.72,SSE,148,1.0,6.0,20,0.00,,,0.00,meteohub,2013-04-23 07:07:00,
2013-04-23 00:12:00,72.3,27.7,29.72,ENE,64,3.0,10.0,19,0.00,,,0.00,meteohub,2013-04-23 07:12:00,
2013-04-23 00:17:00,72.7,28.0,29.72,ENE,70,3.0,10.0,19,0.00,,,0.00,meteohub,2013-04-23 07:17:00,
2013-04-23 00:22:00,72.7,28.0,29.72,East,96,2.0,10.0,19,0.00,,,0.00,meteohub,2013-04-23 07:22:00,
2013-04-23 00:27:00,72.3,26.4,29.72,East,94,5.0,5.0,18,0.00,,,0.00,meteohub,2013-04-23 07:27:00,
2013-04-23 00:32:00,72.3,26.4,29.72,East,81,0.0,5.0,18,0.00,,,0.00,meteohub,2013-04-23 07:32:00,
2013-04-23 00:37:00,72.3,26.4,29.72,East,87,3.0,6.0,18,0.00,,,0.00,meteohub,2013-04-23 07:37:00,
2013-04-23 00:42:00,72.3,26.4,29.72,East,94,2.0,10.0,18,0.00,,,0.00,meteohub,2013-04-23 07:42:00,
2013-04-23 00:47:00,72.3,25.0,29.72,ENE,78,1.0,10.0,17,0.00,,,0.00,meteohub,2013-04-23 07:47:00,
2013-04-23 00:52:00,72.3,27.7,29.72,East,80,0.0,10.0,19,0.00,,,0.00,meteohub,2013-04-23 07:52:00,
2013-04-23 00:57:00,72.0,24.8,29.73,East,82,0.0,7.0,17,0.00,,,0.00,meteohub,2013-04-23 07:57:00,
2013-04-23 01:02:00,72.0,23.4,29.73,ENE,77,4.0,7.0,16,0.00,,,0.00,meteohub,2013-04-23 08:02:00,
2013-04-23 01:07:00,72.0,24.8,29.73,SSW,197,2.0,10.0,17,0.00,,,0.00,meteohub,2013-04-23 08:07:00,
2013-04-23 01:12:00,71.8,24.6,29.72,East,83,1.0,10.0,17,0.00,,,0.00,meteohub,2013-04-23 08:12:00,
2013-04-23 01:17:00,71.6,23.0,29.72,NW,308,3.0,10.0,16,0.00,,,0.00,meteohub,2013-04-23 08:17:00,
2013-04-23 01:22:00,71.6,21.6,29.72,NE,50,7.0,10.0,15,0.00,,,0.00,meteohub,2013-04-23 08:22:00,
2013-04-23 01:27:00,71.8,19.9,29.72,SE,134,5.0,17.0,14,0.00,,,0.00,meteohub,2013-04-23 08:27:00,
2013-04-23 01:32:00,72.0,18.5,29.72,ESE,109,6.0,17.0,13,0.00,,,0.00,meteohub,2013-04-23 08:32:00,
2013-04-23 01:37:00,72.0,20.1,29.72,East,79,5.0,17.0,14,0.00,,,0.00,meteohub,2013-04-23 08:37:00,
2013-04-23 01:42:00,71.8,18.3,29.72,WSW,248,5.0,13.0,13,0.00,,,0.00,meteohub,2013-04-23 08:42:00,
2013-04-23 01:46:00,71.8,18.3,29.72,East,88,2.0,10.0,13,0.00,,,0.00,meteohub,2013-04-23 08:46:00,
2013-04-23 01:51:00,71.4,18.0,29.72,East,80,2.0,8.0,13,0.00,,,0.00,meteohub,2013-04-23 08:51:00,
2013-04-23 01:56:00,71.4,18.0,29.72,ENE,76,2.0,8.0,13,0.00,,,0.00,meteohub,2013-04-23 08:56:00,
2013-04-23 02:01:00,71.2,19.6,29.72,ENE,68,1.0,7.0,14,0.00,,,0.00,meteohub,2013-04-23 09:01:00,
2013-04-23 02:07:00,71.1,25.3,29.72,ENE,69,2.0,6.0,18,0.00,,,0.00,meteohub,2013-04-23 09:07:00,
2013-04-23 02:12:00,70.0,24.4,29.72,ENE,69,0.0,6.0,18,0.00,,,0.00,meteohub,2013-04-23 09:12:00,
2013-04-23 02:17:00,68.7,24.8,29.72,ENE,59,3.0,4.0,19,0.00,,,0.00,meteohub,2013-04-23 09:17:00,
2013-04-23 02:22:00,68.7,23.5,29.72,ENE,59,0.0,6.0,18,0.00,,,0.00,meteohub,2013-04-23 09:22:00,
2013-04-23 02:27:00,68.2,26.8,29.72,ENE,59,1.0,6.0,21,0.00,,,0.00,meteohub,2013-04-23 09:27:00,
2013-04-23 02:32:00,67.3,27.1,29.72,ENE,59,0.0,6.0,22,0.00,,,0.00,meteohub,2013-04-23 09:32:00,
2013-04-23 02:37:00,66.4,29.5,29.72,ENE,59,0.0,3.0,25,0.00,,,0.00,meteohub,2013-04-23 09:37:00,
2013-04-23 02:42:00,65.7,28.9,29.72,ENE,59,0.0,3.0,25,0.00,,,0.00,meteohub,2013-04-23 09:42:00,
2013-04-23 02:47:00,64.9,28.2,29.72,ENE,59,0.0,3.0,25,0.00,,,0.00,meteohub,2013-04-23 09:47:00,
2013-04-23 02:52:00,64.4,28.8,29.72,ENE,59,0.0,3.0,26,0.00,,,0.00,meteohub,2013-04-23 09:52:00,
2013-04-23 02:57:00,64.0,30.2,29.72,ENE,59,0.0,3.0,28,0.00,,,0.00,meteohub,2013-04-23 09:57:00,
2013-04-23 03:02:00,63.7,30.0,29.72,ENE,59,0.0,3.0,28,0.00,,,0.00,meteohub,2013-04-23 10:02:00,
2013-04-23 03:07:00,63.5,30.7,29.72,ENE,59,0.0,3.0,29,0.00,,,0.00,meteohub,2013-04-23 10:07:00,
2013-04-23 03:12:00,63.1,30.4,29.72,ENE,59,1.0,2.0,29,0.00,,,0.00,meteohub,2013-04-23 10:12:00,
2013-04-23 03:17:00,62.8,29.1,29.72,ENE,59,0.0,2.0,28,0.00,,,0.00,meteohub,2013-04-23 10:17:00,
2013-04-23 03:22:00,62.6,29.8,29.72,ENE,59,0.0,1.0,29,0.00,,,0.00,meteohub,2013-04-23 10:22:00,
2013-04-23 03:27:00,62.8,29.1,29.73,ENE,59,0.0,1.0,28,0.00,,,0.00,meteohub,2013-04-23 10:27:00,
2013-04-23 03:32:00,63.3,29.7,29.73,ENE,59,0.0,3.0,28,0.00,,,0.00,meteohub,2013-04-23 10:32:00,
2013-04-23 03:37:00,63.3,30.6,29.73,ENE,59,0.0,3.0,29,0.00,,,0.00,meteohub,2013-04-23 10:37:00,
2013-04-23 03:42:00,64.2,23.5,29.73,NE,55,0.0,3.0,21,0.00,,,0.00,meteohub,2013-04-23 10:42:00,
2013-04-23 03:47:00,65.5,24.4,29.73,NE,55,0.0,6.0,21,0.00,,,0.00,meteohub,2013-04-23 10:47:00,
2013-04-23 03:52:00,66.0,28.2,29.73,NE,55,0.0,6.0,24,0.00,,,0.00,meteohub,2013-04-23 10:52:00,
2013-04-23 03:57:00,65.8,28.9,29.73,NE,55,0.0,6.0,25,0.00,,,0.00,meteohub,2013-04-23 10:57:00,
2013-04-23 04:02:00,65.1,29.3,29.73,NE,55,0.0,3.0,26,0.00,,,0.00,meteohub,2013-04-23 11:02:00,
2013-04-23 04:07:00,64.6,28.0,29.73,NE,55,0.0,3.0,25,0.00,,,0.00,meteohub,2013-04-23 11:07:00,
2013-04-23 04:12:00,64.2,28.6,29.73,NE,55,0.0,2.0,26,0.00,,,0.00,meteohub,2013-04-23 11:12:00,
2013-04-23 04:17:00,64.0,28.4,29.73,NE,55,0.0,2.0,26,0.00,,,0.00,meteohub,2013-04-23 11:17:00,
2013-04-23 04:22:00,63.9,29.3,29.73,NE,55,0.0,2.0,27,0.00,,,0.00,meteohub,2013-04-23 11:22:00,
2013-04-23 04:27:00,63.3,28.8,29.73,NE,55,0.0,2.0,27,0.00,,,0.00,meteohub,2013-04-23 11:27:00,
2013-04-23 04:32:00,62.6,29.8,29.73,NE,55,0.0,2.0,29,0.00,,,0.00,meteohub,2013-04-23 11:32:00,
2013-04-23 04:37:00,62.1,29.5,29.73,NE,55,1.0,2.0,29,0.00,,,0.00,meteohub,2013-04-23 11:37:00,
2013-04-23 04:42:00,62.2,23.9,29.74,NE,55,0.0,5.0,23,0.00,,,0.00,meteohub,2013-04-23 11:42:00,
2013-04-23 04:47:00,63.0,26.6,29.74,NE,55,1.0,5.0,25,0.00,,,0.00,meteohub,2013-04-23 11:47:00,
2013-04-23 04:52:00,63.5,21.7,29.74,NE,55,0.0,5.0,20,0.00,,,0.00,meteohub,2013-04-23 11:52:00,
2013-04-23 04:57:00,64.2,24.6,29.73,NE,55,3.0,5.0,22,0.00,,,0.00,meteohub,2013-04-23 11:57:00,
2013-04-23 05:02:00,65.1,20.5,29.73,NE,55,0.0,5.0,18,0.00,,,0.00,meteohub,2013-04-23 12:02:00,
2013-04-23 05:07:00,65.7,24.6,29.73,NE,55,2.0,5.0,21,0.00,,,0.00,meteohub,2013-04-23 12:07:00,
2013-04-23 05:12:00,65.1,27.5,29.73,NE,55,3.0,3.0,24,0.00,,,0.00,meteohub,2013-04-23 12:12:00,
2013-04-23 05:17:00,64.9,21.7,29.73,NE,55,0.0,4.0,19,0.00,,,0.00,meteohub,2013-04-23 12:17:00,
2013-04-23 05:22:00,65.1,20.5,29.73,NE,54,0.0,5.0,18,0.00,,,0.00,meteohub,2013-04-23 12:22:00,
2013-04-23 05:27:00,64.9,25.2,29.74,NE,54,2.0,5.0,22,0.00,,,0.00,meteohub,2013-04-23 12:27:00,
2013-04-23 05:32:00,63.9,23.2,29.74,NE,54,0.0,5.0,21,0.00,,,0.00,meteohub,2013-04-23 12:32:00,
2013-04-23 05:37:00,64.0,22.1,29.74,NE,53,1.0,9.0,20,0.00,,,0.00,meteohub,2013-04-23 12:37:00,
2013-04-23 05:42:00,64.6,23.7,29.74,ENE,74,1.0,9.0,21,0.00,,,0.00,meteohub,2013-04-23 12:42:00,
2013-04-23 05:47:00,64.8,18.9,29.74,NW,314,6.0,9.0,17,0.00,,,0.00,meteohub,2013-04-23 12:47:00,
2013-04-23 05:52:00,65.5,22.1,29.74,NW,311,2.0,9.0,19,0.00,,,0.00,meteohub,2013-04-23 12:52:00,
2013-04-23 05:57:00,66.4,18.9,29.73,East,79,2.0,9.0,16,0.00,,,0.00,meteohub,2013-04-23 12:57:00,
2013-04-23 06:02:00,66.7,23.2,29.73,East,79,2.0,10.0,19,0.00,,,0.00,meteohub,2013-04-23 13:02:00,
2013-04-23 06:07:00,66.0,21.2,29.73,East,83,3.0,10.0,18,0.00,,,0.00,meteohub,2013-04-23 13:07:00,
2013-04-23 06:12:00,65.5,24.4,29.73,East,82,1.0,6.0,21,0.00,,,0.00,meteohub,2013-04-23 13:12:00,
2013-04-23 06:17:00,64.8,26.1,29.73,East,82,1.0,3.0,23,0.00,,,0.00,meteohub,2013-04-23 13:17:00,
2013-04-23 06:22:00,63.9,25.3,29.73,East,82,0.0,3.0,23,0.00,,,0.00,meteohub,2013-04-23 13:22:00,
2013-04-23 06:27:00,63.1,27.7,29.75,East,82,0.0,3.0,26,0.00,,,0.00,meteohub,2013-04-23 13:27:00,
2013-04-23 06:32:00,62.2,26.1,29.75,East,82,0.0,2.0,25,0.00,,,0.00,meteohub,2013-04-23 13:32:00,
2013-04-23 06:37:00,61.3,27.9,29.75,East,82,0.0,3.0,28,0.00,,,0.00,meteohub,2013-04-23 13:37:00,
2013-04-23 06:42:00,60.4,28.9,29.75,East,82,0.0,3.0,30,0.00,,,0.00,meteohub,2013-04-23 13:42:00,
2013-04-23 06:47:00,59.7,29.8,29.75,East,82,0.0,3.0,32,0.00,,,0.00,meteohub,2013-04-23 13:47:00,
2013-04-23 06:52:00,59.0,30.0,29.75,East,82,0.0,1.0,33,0.00,,,0.00,meteohub,2013-04-23 13:52:00,
2013-04-23 06:57:00,58.3,30.0,29.75,East,82,0.0,1.0,34,0.00,,,0.00,meteohub,2013-04-23 13:57:00,
2013-04-23 07:02:00,57.9,31.8,29.75,East,82,0.0,3.0,37,0.00,,,0.00,meteohub,2013-04-23 14:02:00,
2013-04-23 07:07:00,58.5,27.9,29.75,East,80,3.0,5.0,31,0.00,,,0.00,meteohub,2013-04-23 14:07:00,
2013-04-23 07:12:00,60.1,26.8,29.75,SSW,200,0.0,5.0,28,0.00,,,0.00,meteohub,2013-04-23 14:12:00,
2013-04-23 07:17:00,60.4,28.0,29.75,SSW,200,2.0,6.0,29,0.00,,,0.00,meteohub,2013-04-23 14:17:00,
2013-04-23 07:22:00,60.6,20.5,29.75,ESE,119,0.0,6.0,21,0.00,,,0.00,meteohub,2013-04-23 14:22:00,
2013-04-23 07:27:00,61.9,29.3,29.76,ESE,120,0.0,7.0,29,0.00,,,0.00,meteohub,2013-04-23 14:27:00,
2013-04-23 07:32:00,61.7,29.1,29.76,ESE,120,0.0,7.0,29,0.00,,,0.00,meteohub,2013-04-23 14:32:00,
2013-04-23 07:37:00,61.3,29.7,29.76,ESE,120,0.0,7.0,30,0.00,,,0.00,meteohub,2013-04-23 14:37:00,
2013-04-23 07:42:00,61.3,29.7,29.76,ESE,120,0.0,3.0,30,0.00,,,0.00,meteohub,2013-04-23 14:42:00,
2013-04-23 07:47:00,61.5,30.6,29.76,ESE,120,0.0,3.0,31,0.00,,,0.00,meteohub,2013-04-23 14:47:00,
2013-04-23 07:52:00,62.4,24.1,29.76,ESE,120,1.0,3.0,23,0.00,,,0.00,meteohub,2013-04-23 14:52:00,
2013-04-23 07:57:00,63.5,23.9,29.77,ESE,120,0.0,4.0,22,0.00,,,0.00,meteohub,2013-04-23 14:57:00,
2013-04-23 08:02:00,64.0,27.5,29.77,ESE,120,3.0,4.0,25,0.00,,,0.00,meteohub,2013-04-23 15:02:00,
2013-04-23 08:07:00,63.9,34.9,29.77,ESE,120,0.0,3.0,34,0.00,,,0.00,meteohub,2013-04-23 15:07:00,
2013-04-23 08:12:00,63.7,35.6,29.77,ESE,120,0.0,3.0,35,0.00,,,0.00,meteohub,2013-04-23 15:12:00,
2013-04-23 08:17:00,63.7,26.2,29.77,ESE,120,0.0,3.0,24,0.00,,,0.00,meteohub,2013-04-23 15:17:00,
2013-04-23 08:22:00,64.2,32.2,29.77,ESE,120,1.0,1.0,30,0.00,,,0.00,meteohub,2013-04-23 15:22:00,
2013-04-23 08:27:00,64.9,34.3,29.78,ESE,120,0.0,4.0,32,0.00,,,0.00,meteohub,2013-04-23 15:27:00,
2013-04-23 08:32:00,65.8,22.5,29.78,ESE,120,2.0,4.0,19,0.00,,,0.00,meteohub,2013-04-23 15:32:00,
2013-04-23 08:37:00,67.3,27.1,29.78,ESE,120,0.0,4.0,22,0.00,,,0.00,meteohub,2013-04-23 15:37:00,
2013-04-23 08:42:00,68.5,35.1,29.77,ESE,120,0.0,2.0,29,0.00,,,0.00,meteohub,2013-04-23 15:42:00,
2013-04-23 08:47:00,69.1,33.6,29.77,ESE,120,0.0,2.0,27,0.00,,,0.00,meteohub,2013-04-23 15:47:00,
2013-04-23 08:52:00,69.6,22.8,29.77,SSE,149,1.0,2.0,17,0.00,,,0.00,meteohub,2013-04-23 15:52:00,
2013-04-23 08:57:00,70.2,24.6,29.77,SSE,149,0.0,4.0,18,0.00,,,0.00,meteohub,2013-04-23 15:57:00,
2013-04-23 09:02:00,71.1,29.1,29.77,SSE,149,0.0,4.0,21,0.00,,,0.00,meteohub,2013-04-23 16:02:00,
2013-04-23 09:07:00,72.0,29.8,29.77,SSE,149,1.0,3.0,21,0.00,,,0.00,meteohub,2013-04-23 16:07:00,
2013-04-23 09:12:00,72.5,25.2,29.77,SSE,149,0.0,2.0,17,0.00,,,0.00,meteohub,2013-04-23 16:12:00,
2013-04-23 09:17:00,72.7,22.3,29.77,SSE,150,1.0,4.0,15,0.00,,,0.00,meteohub,2013-04-23 16:17:00,
2013-04-23 09:22:00,72.7,32.7,29.77,SSE,150,0.0,4.0,23,0.00,,,0.00,meteohub,2013-04-23 16:22:00,
2013-04-23 09:27:00,73.0,29.7,29.77,SSE,150,0.0,4.0,20,0.00,,,0.00,meteohub,2013-04-23 16:27:00,
2013-04-23 09:32:00,73.4,27.3,29.77,SSE,150,1.0,3.0,18,0.00,,,0.00,meteohub,2013-04-23 16:32:00,
2013-04-23 09:37:00,73.9,27.7,29.77,SSE,150,1.0,3.0,18,0.00,,,0.00,meteohub,2013-04-23 16:37:00,
2013-04-23 09:42:00,73.9,29.1,29.77,SSE,150,2.0,3.0,19,0.00,,,0.00,meteohub,2013-04-23 16:42:00,
2013-04-23 09:47:00,73.9,21.7,29.77,SSE,150,0.0,3.0,14,0.00,,,0.00,meteohub,2013-04-23 16:47:00,
2013-04-23 09:52:00,74.1,21.9,29.77,SSE,150,0.0,3.0,14,0.00,,,0.00,meteohub,2013-04-23 16:52:00,
2013-04-23 09:57:00,74.8,25.7,29.78,SSE,150,0.0,3.0,16,0.00,,,0.00,meteohub,2013-04-23 16:57:00,
2013-04-23 10:02:00,75.4,24.4,29.78,SSE,150,2.0,2.0,15,0.00,,,0.00,meteohub,2013-04-23 17:02:00,
2013-04-23 10:07:00,75.6,23.0,29.78,South,184,1.0,3.0,14,0.00,,,0.00,meteohub,2013-04-23 17:07:00,
2013-04-23 10:12:00,75.6,27.7,29.78,South,184,2.0,4.0,17,0.00,,,0.00,meteohub,2013-04-23 17:12:00,
2013-04-23 10:17:00,75.9,23.4,29.78,South,184,0.0,4.0,14,0.00,,,0.00,meteohub,2013-04-23 17:17:00,
2013-04-23 10:22:00,76.5,23.7,29.78,South,184,0.0,4.0,14,0.00,,,0.00,meteohub,2013-04-23 17:22:00,
2013-04-23 10:27:00,76.8,25.7,29.78,South,184,1.0,3.0,15,0.00,,,0.00,meteohub,2013-04-23 17:27:00,
2013-04-23 10:32:00,76.6,23.9,29.78,South,190,0.0,4.0,14,0.00,,,0.00,meteohub,2013-04-23 17:32:00,
2013-04-23 10:37:00,76.5,32.4,29.78,South,190,1.0,4.0,20,0.00,,,0.00,meteohub,2013-04-23 17:37:00,
2013-04-23 10:42:00,76.5,21.9,29.78,South,191,3.0,4.0,13,0.00,,,0.00,meteohub,2013-04-23 17:42:00,
2013-04-23 10:47:00,76.6,31.3,29.78,South,191,1.0,4.0,19,0.00,,,0.00,meteohub,2013-04-23 17:47:00,
2013-04-23 10:52:00,76.8,30.0,29.78,SSW,192,1.0,4.0,18,0.00,,,0.00,meteohub,2013-04-23 17:52:00,
2013-04-23 10:57:00,77.4,26.1,29.78,SSW,192,1.0,4.0,15,0.00,,,0.00,meteohub,2013-04-23 17:57:00,
2013-04-23 11:02:00,78.1,32.5,29.78,SSW,192,1.0,4.0,19,0.00,,,0.00,meteohub,2013-04-23 18:02:00,
2013-04-23 11:07:00,77.9,24.8,29.78,SSW,192,4.0,6.0,14,0.00,,,0.00,meteohub,2013-04-23 18:07:00,
2013-04-23 11:12:00,77.4,29.1,29.79,SSW,192,1.0,6.0,17,0.00,,,0.00,meteohub,2013-04-23 18:12:00,
2013-04-23 11:17:00,77.4,29.1,29.79,SSW,192,0.0,6.0,17,0.00,,,0.00,meteohub,2013-04-23 18:17:00,
2013-04-23 11:22:00,78.1,26.6,29.79,SSW,192,1.0,4.0,15,0.00,,,0.00,meteohub,2013-04-23 18:22:00,
2013-04-23 11:27:00,78.4,30.0,29.78,SSW,192,1.0,4.0,17,0.00,,,0.00,meteohub,2013-04-23 18:27:00,
2013-04-23 11:32:00,78.4,25.3,29.78,SSW,194,0.0,3.0,14,0.00,,,0.00,meteohub,2013-04-23 18:32:00,
2013-04-23 11:37:00,78.8,30.4,29.78,SSW,195,3.0,5.0,17,0.00,,,0.00,meteohub,2013-04-23 18:37:00,
2013-04-23 11:42:00,78.6,31.6,29.78,SSW,195,1.0,5.0,18,0.00,,,0.00,meteohub,2013-04-23 18:42:00,
2013-04-23 11:47:00,79.0,27.3,29.78,SSW,195,3.0,4.0,15,0.00,,,0.00,meteohub,2013-04-23 18:47:00,
2013-04-23 11:52:00,79.0,31.8,29.78,SSW,195,1.0,4.0,18,0.00,,,0.00,meteohub,2013-04-23 18:52:00,
2013-04-23 11:57:00,79.3,29.3,29.77,SSW,195,0.0,4.0,16,0.00,,,0.00,meteohub,2013-04-23 18:57:00,
2013-04-23 12:02:00,79.2,22.1,29.77,SSW,195,1.0,4.0,12,0.00,,,0.00,meteohub,2013-04-23 19:02:00,
2013-04-23 12:07:00,79.3,32.2,29.77,SSW,195,0.0,4.0,18,0.00,,,0.00,meteohub,2013-04-23 19:07:00,
2013-04-23 12:12:00,79.3,27.7,29.77,SSW,195,1.0,4.0,15,0.00,,,0.00,meteohub,2013-04-23 19:12:00,
2013-04-23 12:17:00,79.3,24.3,29.77,SSW,196,1.0,5.0,13,0.00,,,0.00,meteohub,2013-04-23 19:17:00,
2013-04-23 12:22:00,79.3,26.1,29.77,SSW,196,0.0,5.0,14,0.00,,,0.00,meteohub,2013-04-23 19:22:00,
2013-04-23 12:27:00,79.7,28.0,29.77,SSW,196,0.0,5.0,15,0.00,,,0.00,meteohub,2013-04-23 19:27:00,
2013-04-23 12:32:00,80.4,28.6,29.77,SSW,196,0.0,5.0,15,0.00,,,0.00,meteohub,2013-04-23 19:32:00,
2013-04-23 12:37:00,80.4,23.2,29.77,SSW,206,3.0,3.0,12,0.00,,,0.00,meteohub,2013-04-23 19:37:00,
2013-04-23 12:42:00,80.2,23.0,29.76,SSW,206,0.0,7.0,12,0.00,,,0.00,meteohub,2013-04-23 19:42:00,
2013-04-23 12:47:00,80.6,30.2,29.76,SSW,206,0.0,7.0,16,0.00,,,0.00,meteohub,2013-04-23 19:47:00,
2013-04-23 12:52:00,80.8,28.8,29.76,SSW,206,1.0,6.0,15,0.00,,,0.00,meteohub,2013-04-23 19:52:00,
2013-04-23 12:57:00,81.0,25.5,29.75,SSW,206,0.0,4.0,13,0.00,,,0.00,meteohub,2013-04-23 19:57:00,
2013-04-23 13:02:00,81.0,32.0,29.75,SSW,206,0.0,4.0,17,0.00,,,0.00,meteohub,2013-04-23 20:02:00,
2013-04-23 13:07:00,81.1,33.6,29.75,South,173,3.0,5.0,18,0.00,,,0.00,meteohub,2013-04-23 20:07:00,
2013-04-23 13:12:00,81.0,37.4,29.75,South,174,2.0,5.0,21,0.00,,,0.00,meteohub,2013-04-23 20:12:00,
2013-04-23 13:17:00,81.0,38.5,29.75,South,174,4.0,5.0,22,0.00,,,0.00,meteohub,2013-04-23 20:17:00,
2013-04-23 13:22:00,80.4,39.2,29.75,WSW,238,2.0,9.0,23,0.00,,,0.00,meteohub,2013-04-23 20:22:00,
2013-04-23 13:27:00,80.2,45.1,29.74,WNW,288,4.0,9.0,29,0.00,,,0.00,meteohub,2013-04-23 20:27:00,
2013-04-23 13:32:00,80.1,45.9,29.74,WNW,293,4.0,10.0,30,0.00,,,0.00,meteohub,2013-04-23 20:32:00,
2013-04-23 13:37:00,79.3,46.0,29.74,NW,305,4.0,10.0,31,0.00,,,0.00,meteohub,2013-04-23 20:37:00,
2013-04-23 13:42:00,79.0,45.7,29.75,NW,304,0.0,10.0,31,0.00,,,0.00,meteohub,2013-04-23 20:42:00,
2013-04-23 13:47:00,78.6,42.8,29.75,NW,309,4.0,10.0,28,0.00,,,0.00,meteohub,2013-04-23 20:47:00,
2013-04-23 13:52:00,78.3,42.4,29.75,West,275,3.0,10.0,28,0.00,,,0.00,meteohub,2013-04-23 20:52:00,
2013-04-23 13:57:00,78.3,45.1,29.75,NNW,327,5.0,10.0,31,0.00,,,0.00,meteohub,2013-04-23 20:57:00,
2013-04-23 14:02:00,78.1,43.2,29.75,WNW,286,1.0,10.0,29,0.00,,,0.00,meteohub,2013-04-23 21:02:00,
2013-04-23 14:07:00,77.5,44.6,29.75,WSW,244,3.0,9.0,31,0.00,,,0.00,meteohub,2013-04-23 21:07:00,
2013-04-23 14:12:00,77.4,47.5,29.74,WSW,246,3.0,9.0,35,0.00,,,0.00,meteohub,2013-04-23 21:12:00,
2013-04-23 14:17:00,77.4,48.4,29.74,North,355,1.0,9.0,36,0.00,,,0.00,meteohub,2013-04-23 21:17:00,
2013-04-23 14:22:00,77.4,44.4,29.74,North,355,0.0,9.0,31,0.00,,,0.00,meteohub,2013-04-23 21:22:00,
2013-04-23 14:27:00,77.2,46.6,29.75,NW,317,0.0,9.0,34,0.00,,,0.00,meteohub,2013-04-23 21:27:00,
2013-04-23 14:32:00,76.6,44.6,29.75,WNW,282,2.0,7.0,32,0.00,,,0.00,meteohub,2013-04-23 21:32:00,
2013-04-23 14:37:00,76.5,46.0,29.75,WSW,246,3.0,7.0,34,0.00,,,0.00,meteohub,2013-04-23 21:37:00,
2013-04-23 14:42:00,76.5,45.1,29.75,WSW,242,2.0,7.0,33,0.00,,,0.00,meteohub,2013-04-23 21:42:00,
2013-04-23 14:47:00,75.9,45.5,29.75,NNW,328,6.0,6.0,34,0.00,,,0.00,meteohub,2013-04-23 21:47:00,
2013-04-23 14:52:00,75.6,46.8,29.75,North,5,2.0,10.0,36,0.00,,,0.00,meteohub,2013-04-23 21:52:00,
2013-04-23 14:57:00,75.2,48.6,29.75,WNW,283,0.0,10.0,39,0.00,,,0.00,meteohub,2013-04-23 21:57:00,
2013-04-23 15:02:00,75.6,50.2,29.75,WSW,257,3.0,10.0,41,0.00,,,0.00,meteohub,2013-04-23 22:02:00,
2013-04-23 15:07:00,75.4,49.5,29.75,West,267,1.0,10.0,40,0.00,,,0.00,meteohub,2013-04-23 22:07:00,
2013-04-23 15:12:00,75.4,45.9,29.75,WNW,289,0.0,10.0,35,0.00,,,0.00,meteohub,2013-04-23 22:12:00,
2013-04-23 15:17:00,75.0,46.9,29.75,WNW,289,7.0,10.0,37,0.00,,,0.00,meteohub,2013-04-23 22:17:00,
2013-04-23 15:22:00,74.5,45.0,29.75,NW,317,1.0,7.0,35,0.00,,,0.00,meteohub,2013-04-23 22:22:00,
2013-04-23 15:27:00,74.1,44.8,29.75,WSW,251,1.0,11.0,35,0.00,,,0.00,meteohub,2013-04-23 22:27:00,
2013-04-23 15:32:00,73.9,46.0,29.75,West,262,2.0,11.0,37,0.00,,,0.00,meteohub,2013-04-23 22:32:00,
2013-04-23 15:37:00,73.8,45.9,29.75,West,269,1.0,10.0,37,0.00,,,0.00,meteohub,2013-04-23 22:37:00,
2013-04-23 15:42:00,73.6,45.7,29.75,West,269,6.0,10.0,37,0.00,,,0.00,meteohub,2013-04-23 22:42:00,
2013-04-23 15:47:00,73.2,45.3,29.75,West,279,3.0,10.0,37,0.00,,,0.00,meteohub,2013-04-23 22:47:00,
2013-04-23 15:52:00,73.0,44.4,29.75,West,275,0.0,11.0,36,0.00,,,0.00,meteohub,2013-04-23 22:52:00,
2013-04-23 15:57:00,73.0,46.6,29.75,West,273,3.0,11.0,39,0.00,,,0.00,meteohub,2013-04-23 22:57:00,
2013-04-23 16:02:00,72.7,46.2,29.75,West,275,1.0,9.0,39,0.00,,,0.00,meteohub,2013-04-23 23:02:00,
2013-04-23 16:07:00,72.5,46.8,29.75,NW,305,6.0,9.0,40,0.00,,,0.00,meteohub,2013-04-23 23:07:00,
2013-04-23 16:12:00,72.0,47.7,29.74,WNW,290,7.0,9.0,42,0.00,,,0.00,meteohub,2013-04-23 23:12:00,
2013-04-23 16:17:00,71.2,46.9,29.74,West,281,1.0,11.0,42,0.00,,,0.00,meteohub,2013-04-23 23:17:00,
2013-04-23 16:22:00,71.2,47.7,29.74,West,266,1.0,11.0,43,0.00,,,0.00,meteohub,2013-04-23 23:22:00,
2013-04-23 16:27:00,71.2,46.4,29.73,West,266,2.0,11.0,41,0.00,,,0.00,meteohub,2013-04-23 23:27:00,
2013-04-23 16:32:00,71.2,46.9,29.73,West,266,2.0,9.0,42,0.00,,,0.00,meteohub,2013-04-23 23:32:00,
2013-04-23 16:37:00,71.2,46.4,29.73,West,276,0.0,4.0,41,0.00,,,0.00,meteohub,2013-04-23 23:37:00,
2013-04-23 16:42:00,70.9,47.8,29.73,West,265,3.0,5.0,44,0.00,,,0.00,meteohub,2013-04-23 23:42:00,
2013-04-23 16:47:00,70.5,47.5,29.73,West,276,1.0,6.0,44,0.00,,,0.00,meteohub,2013-04-23 23:47:00,
2013-04-23 16:52:00,70.3,48.0,29.73,WNW,283,4.0,6.0,45,0.00,,,0.00,meteohub,2013-04-23 23:52:00,
2013-04-23 16:57:00,70.2,47.8,29.73,WNW,294,2.0,6.0,45,0.00,,,0.00,meteohub,2013-04-23 23:57:00,
2013-04-23 17:02:00,69.6,47.8,29.73,WNW,295,1.0,5.0,46,0.00,,,0.00,meteohub,2013-04-24 00:02:00,
2013-04-23 17:07:00,69.4,48.4,29.73,WNW,295,0.0,5.0,47,0.00,,,0.00,meteohub,2013-04-24 00:07:00,
2013-04-23 17:12:00,69.3,47.7,29.73,WNW,295,0.0,4.0,46,0.00,,,0.00,meteohub,2013-04-24 00:12:00,
2013-04-23 17:17:00,68.9,47.3,29.73,WNW,296,0.0,4.0,46,0.00,,,0.00,meteohub,2013-04-24 00:17:00,
2013-04-23 17:22:00,68.7,47.7,29.73,WNW,295,3.0,4.0,47,0.00,,,0.00,meteohub,2013-04-24 00:22:00,
2013-04-23 17:27:00,68.5,48.6,29.73,WNW,295,0.0,4.0,49,0.00,,,0.00,meteohub,2013-04-24 00:27:00,
2013-04-23 17:32:00,68.2,48.4,29.73,WNW,295,0.0,4.0,49,0.00,,,0.00,meteohub,2013-04-24 00:32:00,
2013-04-23 17:37:00,67.8,48.0,29.73,WNW,295,0.0,3.0,49,0.00,,,0.00,meteohub,2013-04-24 00:37:00,
2013-04-23 17:42:00,67.5,48.2,29.73,WNW,295,0.0,4.0,50,0.00,,,0.00,meteohub,2013-04-24 00:42:00,
2013-04-23 17:47:00,66.9,47.7,29.73,WNW,295,1.0,4.0,50,0.00,,,0.00,meteohub,2013-04-24 00:47:00,
2013-04-23 17:52:00,66.6,47.8,29.73,WNW,295,0.0,4.0,51,0.00,,,0.00,meteohub,2013-04-24 00:52:00,
2013-04-23 17:57:00,66.0,47.3,29.73,WNW,296,0.0,4.0,51,0.00,,,0.00,meteohub,2013-04-24 00:57:00,
2013-04-23 18:02:00,65.7,48.0,29.73,WNW,296,0.0,4.0,53,0.00,,,0.00,meteohub,2013-04-24 01:02:00,
2013-04-23 18:07:00,65.5,47.8,29.73,WNW,296,0.0,4.0,53,0.00,,,0.00,meteohub,2013-04-24 01:07:00,
2013-04-23 18:12:00,64.9,46.9,29.73,WNW,296,0.0,4.0,52,0.00,,,0.00,meteohub,2013-04-24 01:12:00,
2013-04-23 18:17:00,64.8,46.8,29.73,WNW,302,1.0,5.0,52,0.00,,,0.00,meteohub,2013-04-24 01:17:00,
2013-04-23 18:22:00,64.4,46.9,29.73,WNW,302,0.0,5.0,53,0.00,,,0.00,meteohub,2013-04-24 01:22:00,
2013-04-23 18:27:00,64.0,46.6,29.73,WNW,302,0.0,5.0,53,0.00,,,0.00,meteohub,2013-04-24 01:27:00,
2013-04-23 18:32:00,63.7,46.2,29.73,WNW,303,1.0,3.0,53,0.00,,,0.00,meteohub,2013-04-24 01:32:00,
2013-04-23 18:37:00,63.3,46.4,29.73,WNW,303,0.0,3.0,54,0.00,,,0.00,meteohub,2013-04-24 01:37:00,
2013-04-23 18:42:00,63.0,46.0,29.73,WNW,303,0.0,3.0,54,0.00,,,0.00,meteohub,2013-04-24 01:42:00,
2013-04-23 18:47:00,62.6,46.2,29.73,WNW,303,0.0,1.0,55,0.00,,,0.00,meteohub,2013-04-24 01:47:00,
2013-04-23 18:52:00,62.2,45.3,29.73,WNW,303,0.0,2.0,54,0.00,,,0.00,meteohub,2013-04-24 01:52:00,
2013-04-23 18:57:00,62.1,45.7,29.73,WNW,303,0.0,2.0,55,0.00,,,0.00,meteohub,2013-04-24 01:57:00,
2013-04-23 19:02:00,61.9,46.0,29.73,WNW,303,0.0,2.0,56,0.00,,,0.00,meteohub,2013-04-24 02:02:00,
2013-04-23 19:07:00,61.3,45.5,29.73,WNW,303,0.0,0.0,56,0.00,,,0.00,meteohub,2013-04-24 02:07:00,
2013-04-23 19:12:00,61.2,45.3,29.73,WNW,303,0.0,0.0,56,0.00,,,0.00,meteohub,2013-04-24 02:12:00,
2013-04-23 19:17:00,61.0,45.1,29.73,WNW,303,0.0,0.0,56,0.00,,,0.00,meteohub,2013-04-24 02:17:00,
2013-04-23 19:22:00,60.6,45.3,29.73,WNW,303,0.0,0.0,57,0.00,,,0.00,meteohub,2013-04-24 02:22:00,
2013-04-23 19:27:00,60.4,45.7,29.73,WNW,303,0.0,0.0,58,0.00,,,0.00,meteohub,2013-04-24 02:27:00,
2013-04-23 19:32:00,60.1,45.3,29.73,WNW,303,0.0,0.0,58,0.00,,,0.00,meteohub,2013-04-24 02:32:00,
2013-04-23 19:37:00,59.5,45.1,29.73,WNW,303,0.0,0.0,59,0.00,,,0.00,meteohub,2013-04-24 02:37:00,
2013-04-23 19:42:00,59.2,44.8,29.73,WNW,303,0.0,0.0,59,0.00,,,0.00,meteohub,2013-04-24 02:42:00,
2013-04-23 19:47:00,58.6,43.9,29.73,WNW,303,0.0,0.0,58,0.00,,,0.00,meteohub,2013-04-24 02:47:00,
2013-04-23 19:53:00,58.3,44.1,29.73,WNW,303,0.0,0.0,59,0.00,,,0.00,meteohub,2013-04-24 02:53:00,
2013-04-23 19:58:00,57.7,43.9,29.73,WNW,303,0.0,0.0,60,0.00,,,0.00,meteohub,2013-04-24 02:58:00,
2013-04-23 20:03:00,57.2,43.5,29.73,WNW,303,0.0,0.0,60,0.00,,,0.00,meteohub,2013-04-24 03:03:00,
2013-04-23 20:08:00,56.7,43.0,29.73,WNW,303,0.0,0.0,60,0.00,,,0.00,meteohub,2013-04-24 03:08:00,
2013-04-23 20:14:00,56.3,43.0,29.74,WNW,303,0.0,0.0,61,0.00,,,0.00,meteohub,2013-04-24 03:14:00,
2013-04-23 20:19:00,55.8,42.4,29.74,WNW,303,0.0,0.0,61,0.00,,,0.00,meteohub,2013-04-24 03:19:00,
2013-04-23 20:24:00,55.4,42.6,29.74,WNW,303,0.0,0.0,62,0.00,,,0.00,meteohub,2013-04-24 03:24:00,
2013-04-23 20:29:00,55.0,42.3,29.74,WNW,303,0.0,0.0,62,0.00,,,0.00,meteohub,2013-04-24 03:29:00,
2013-04-23 20:34:00,54.7,42.3,29.74,WNW,303,0.0,0.0,63,0.00,,,0.00,meteohub,2013-04-24 03:34:00,
2013-04-23 20:40:00,54.1,42.3,29.74,WNW,303,0.0,0.0,64,0.00,,,0.00,meteohub,2013-04-24 03:40:00,
2013-04-23 20:45:00,53.8,42.6,29.74,WNW,303,0.0,0.0,66,0.00,,,0.00,meteohub,2013-04-24 03:45:00,
2013-04-23 20:50:00,53.4,42.3,29.74,WNW,303,0.0,0.0,66,0.00,,,0.00,meteohub,2013-04-24 03:50:00,
2013-04-23 20:56:00,53.1,42.1,29.74,WNW,303,0.0,0.0,66,0.00,,,0.00,meteohub,2013-04-24 03:56:00,
2013-04-23 21:01:00,52.7,42.1,29.74,WNW,303,0.0,0.0,67,0.00,,,0.00,meteohub,2013-04-24 04:01:00,
2013-04-23 21:02:00,52.7,42.1,29.74,WNW,303,0.0,0.0,67,0.00,,,0.00,meteohub,2013-04-24 04:02:00,
2013-04-23 21:07:00,52.3,42.1,29.74,WNW,303,0.0,0.0,68,0.00,,,0.00,meteohub,2013-04-24 04:07:00,
2013-04-23 21:12:00,52.0,41.7,29.75,WNW,303,0.0,0.0,68,0.00,,,0.00,meteohub,2013-04-24 04:12:00,
2013-04-23 21:17:00,51.6,41.7,29.75,WNW,303,0.0,0.0,69,0.00,,,0.00,meteohub,2013-04-24 04:17:00,
2013-04-23 21:22:00,51.4,41.9,29.75,WNW,303,0.0,0.0,70,0.00,,,0.00,meteohub,2013-04-24 04:22:00,
2013-04-23 21:27:00,51.1,42.1,29.75,WNW,303,0.0,0.0,71,0.00,,,0.00,meteohub,2013-04-24 04:27:00,
2013-04-23 21:32:00,50.9,41.5,29.75,WNW,303,0.0,0.0,70,0.00,,,0.00,meteohub,2013-04-24 04:32:00,
2013-04-23 21:37:00,50.5,41.5,29.75,WNW,303,0.0,0.0,71,0.00,,,0.00,meteohub,2013-04-24 04:37:00,
2013-04-23 21:42:00,50.4,41.7,29.74,WNW,303,0.0,0.0,72,0.00,,,0.00,meteohub,2013-04-24 04:42:00,
2013-04-23 21:47:00,50.4,42.4,29.74,WNW,303,0.0,0.0,74,0.00,,,0.00,meteohub,2013-04-24 04:47:00,
2013-04-23 21:52:00,50.7,43.2,29.74,WNW,303,0.0,1.0,75,0.00,,,0.00,meteohub,2013-04-24 04:52:00,
2013-04-23 21:57:00,51.1,43.5,29.75,WNW,303,0.0,1.0,75,0.00,,,0.00,meteohub,2013-04-24 04:57:00,
2013-04-23 22:02:00,51.1,43.2,29.75,WNW,303,0.0,1.0,74,0.00,,,0.00,meteohub,2013-04-24 05:02:00,
2013-04-23 22:07:00,51.1,43.7,29.75,WNW,303,0.0,0.0,76,0.00,,,0.00,meteohub,2013-04-24 05:07:00,
2013-04-23 22:12:00,51.1,43.7,29.75,WNW,303,0.0,2.0,76,0.00,,,0.00,meteohub,2013-04-24 05:12:00,
2013-04-23 22:17:00,50.9,44.2,29.75,WNW,303,0.0,2.0,78,0.00,,,0.00,meteohub,2013-04-24 05:17:00,
2013-04-23 22:22:00,50.7,44.1,29.75,WNW,303,0.0,2.0,78,0.00,,,0.00,meteohub,2013-04-24 05:22:00,
2013-04-23 22:27:00,50.5,43.9,29.74,WNW,303,0.0,2.0,78,0.00,,,0.00,meteohub,2013-04-24 05:27:00,
2013-04-23 22:32:00,50.4,43.7,29.74,WNW,303,0.0,2.0,78,0.00,,,0.00,meteohub,2013-04-24 05:32:00,
2013-04-23 22:37:00,49.8,43.9,29.74,WNW,303,0.0,2.0,80,0.00,,,0.00,meteohub,2013-04-24 05:37:00,
2013-04-23 22:42:00,49.6,43.7,29.74,WNW,303,1.0,0.0,80,0.00,,,0.00,meteohub,2013-04-24 05:42:00,
2013-04-23 22:47:00,49.3,43.3,29.74,WNW,303,0.0,2.0,80,0.00,,,0.00,meteohub,2013-04-24 05:47:00,
2013-04-23 22:52:00,48.9,43.3,29.74,WNW,303,0.0,2.0,81,0.00,,,0.00,meteohub,2013-04-24 05:52:00,
2013-04-23 22:57:00,48.7,43.5,29.74,WNW,303,0.0,2.0,82,0.00,,,0.00,meteohub,2013-04-24 05:57:00,
2013-04-23 23:02:00,48.6,43.3,29.74,WNW,303,0.0,1.0,82,0.00,,,0.00,meteohub,2013-04-24 06:02:00,
2013-04-23 23:07:00,48.4,43.5,29.74,WNW,303,0.0,1.0,83,0.00,,,0.00,meteohub,2013-04-24 06:07:00,
2013-04-23 23:12:00,48.4,43.7,29.74,WNW,303,0.0,1.0,84,0.00,,,0.00,meteohub,2013-04-24 06:12:00,
2013-04-23 23:17:00,48.0,43.3,29.74,WNW,303,0.0,0.0,84,0.00,,,0.00,meteohub,2013-04-24 06:17:00,
2013-04-23 23:22:00,47.8,43.5,29.74,WNW,303,0.0,1.0,85,0.00,,,0.00,meteohub,2013-04-24 06:22:00,
2013-04-23 23:27:00,47.7,43.3,29.74,WNW,303,0.0,1.0,85,0.00,,,0.00,meteohub,2013-04-24 06:27:00,
2013-04-23 23:33:00,47.7,43.7,29.74,WNW,303,0.0,1.0,86,0.00,,,0.00,meteohub,2013-04-24 06:33:00,
2013-04-23 23:38:00,47.1,43.2,29.74,WNW,303,0.0,1.0,86,0.00,,,0.00,meteohub,2013-04-24 06:38:00,
2013-04-23 23:43:00,47.1,43.5,29.74,WNW,303,0.0,1.0,87,0.00,,,0.00,meteohub,2013-04-24 06:43:00,
2013-04-23 23:48:00,46.9,43.3,29.74,WNW,303,0.0,1.0,87,0.00,,,0.00,meteohub,2013-04-24 06:48:00,
2013-04-23 23:53:00,46.8,43.3,29.74,WNW,303,0.0,2.0,88,0.00,,,0.00,meteohub,2013-04-24 06:53:00,
2013-04-23 23:58:00,46.6,43.2,29.74,WNW,303,0.0,2.0,88,0.00,,,0.00,meteohub,2013-04-24 06:58:00,